sensor_id;sensor_type;location;lat;lon;timestamp;P1;durP1;ratioP1;P2;durP2;ratioP2
11675;SDS011;5894;42.768;23.404;2024-03-23T00:55:16;12.87;;;7.30;;
11675;SDS011;5894;42.768;23.404;2024-03-23T00:57:42;17.57;;;9.17;;
11675;SDS011;5894;42.768;23.404;2024-03-23T01:00:10;16.17;;;7.97;;
11675;SDS011;5894;42.768;23.404;2024-03-23T01:02:36;11.30;;;6.60;;
11675;SDS011;5894;42.768;23.404;2024-03-23T01:05:03;9.93;;;6.20;;
11675;SDS011;5894;42.768;23.404;2024-03-23T01:07:30;9.07;;;5.90;;
11675;SDS011;5894;42.768;23.404;2024-03-23T01:09:58;7.70;;;5.27;;
11675;SDS011;5894;42.768;23.404;2024-03-23T01:12:24;8.27;;;5.00;;
11675;SDS011;5894;42.768;23.404;2024-03-23T01:14:51;6.80;;;4.70;;
11675;SDS011;5894;42.768;23.404;2024-03-23T01:17:17;8.43;;;4.83;;
11675;SDS011;5894;42.768;23.404;2024-03-23T01:19:44;8.13;;;5.53;;
11675;SDS011;5894;42.768;23.404;2024-03-23T01:22:10;10.10;;;5.87;;
11675;SDS011;5894;42.768;23.404;2024-03-23T01:24:36;16.33;;;8.87;;
11675;SDS011;5894;42.768;23.404;2024-03-23T01:27:04;18.67;;;9.37;;
11675;SDS011;5894;42.768;23.404;2024-03-23T01:29:31;16.93;;;9.40;;
11675;SDS011;5894;42.768;23.404;2024-03-23T01:31:57;18.73;;;9.57;;
11675;SDS011;5894;42.768;23.404;2024-03-23T01:34:24;17.70;;;10.60;;
11675;SDS011;5894;42.768;23.404;2024-03-23T01:36:50;18.17;;;9.70;;
11675;SDS011;5894;42.768;23.404;2024-03-23T01:39:17;20.90;;;11.83;;
11675;SDS011;5894;42.768;23.404;2024-03-23T01:41:43;15.80;;;7.87;;
11675;SDS011;5894;42.768;23.404;2024-03-23T01:44:11;14.13;;;6.90;;
11675;SDS011;5894;42.768;23.404;2024-03-23T01:46:37;12.33;;;7.17;;
11675;SDS011;5894;42.768;23.404;2024-03-23T01:49:06;13.40;;;7.57;;
11675;SDS011;5894;42.768;23.404;2024-03-23T01:51:33;12.60;;;7.53;;
11675;SDS011;5894;42.768;23.404;2024-03-23T01:54:00;14.90;;;8.70;;
11675;SDS011;5894;42.768;23.404;2024-03-23T01:56:28;14.23;;;8.87;;
11675;SDS011;5894;42.768;23.404;2024-03-23T01:58:55;18.00;;;9.73;;
11675;SDS011;5894;42.768;23.404;2024-03-23T02:01:23;23.83;;;11.43;;
11675;SDS011;5894;42.768;23.404;2024-03-23T02:03:50;19.27;;;10.87;;
11675;SDS011;5894;42.768;23.404;2024-03-23T02:06:16;17.73;;;10.17;;
11675;SDS011;5894;42.768;23.404;2024-03-23T02:08:43;14.17;;;9.27;;
11675;SDS011;5894;42.768;23.404;2024-03-23T02:11:09;13.80;;;8.77;;
11675;SDS011;5894;42.768;23.404;2024-03-23T02:13:36;10.23;;;7.63;;
11675;SDS011;5894;42.768;23.404;2024-03-23T02:16:02;11.93;;;7.90;;
11675;SDS011;5894;42.768;23.404;2024-03-23T02:18:32;12.83;;;8.70;;
11675;SDS011;5894;42.768;23.404;2024-03-23T02:20:58;14.20;;;9.50;;
11675;SDS011;5894;42.768;23.404;2024-03-23T02:23:27;15.97;;;9.47;;
11675;SDS011;5894;42.768;23.404;2024-03-23T02:25:53;13.77;;;8.93;;
11675;SDS011;5894;42.768;23.404;2024-03-23T02:28:20;20.50;;;9.50;;
11675;SDS011;5894;42.768;23.404;2024-03-23T02:30:47;14.17;;;9.63;;
11675;SDS011;5894;42.768;23.404;2024-03-23T02:33:14;15.73;;;9.73;;
11675;SDS011;5894;42.768;23.404;2024-03-23T02:35:40;11.10;;;8.33;;
11675;SDS011;5894;42.768;23.404;2024-03-23T02:38:07;10.27;;;7.43;;
11675;SDS011;5894;42.768;23.404;2024-03-23T02:40:34;11.40;;;7.53;;
11675;SDS011;5894;42.768;23.404;2024-03-23T02:43:02;12.57;;;8.07;;
11675;SDS011;5894;42.768;23.404;2024-03-23T02:45:28;12.30;;;8.67;;
11675;SDS011;5894;42.768;23.404;2024-03-23T02:47:55;10.70;;;7.30;;
11675;SDS011;5894;42.768;23.404;2024-03-23T02:50:21;12.03;;;6.70;;
11675;SDS011;5894;42.768;23.404;2024-03-23T02:52:48;10.27;;;6.43;;
11675;SDS011;5894;42.768;23.404;2024-03-23T02:55:14;8.97;;;6.40;;
11675;SDS011;5894;42.768;23.404;2024-03-23T02:57:43;9.53;;;6.27;;
11675;SDS011;5894;42.768;23.404;2024-03-23T03:00:09;9.73;;;7.20;;
11675;SDS011;5894;42.768;23.404;2024-03-23T03:02:38;10.67;;;7.67;;
11675;SDS011;5894;42.768;23.404;2024-03-23T03:05:04;12.67;;;8.13;;
11675;SDS011;5894;42.768;23.404;2024-03-23T03:07:31;14.97;;;8.80;;
11675;SDS011;5894;42.768;23.404;2024-03-23T03:09:57;16.27;;;9.53;;
11675;SDS011;5894;42.768;23.404;2024-03-23T03:12:24;15.73;;;9.80;;
11675;SDS011;5894;42.768;23.404;2024-03-23T03:14:52;15.20;;;9.60;;
11675;SDS011;5894;42.768;23.404;2024-03-23T03:17:19;15.07;;;9.30;;
11675;SDS011;5894;42.768;23.404;2024-03-23T03:19:45;14.83;;;9.03;;
11675;SDS011;5894;42.768;23.404;2024-03-23T03:22:12;14.67;;;9.60;;
11675;SDS011;5894;42.768;23.404;2024-03-23T03:24:38;14.93;;;9.43;;
11675;SDS011;5894;42.768;23.404;2024-03-23T03:27:04;13.37;;;9.17;;
11675;SDS011;5894;42.768;23.404;2024-03-23T03:29:32;19.07;;;9.93;;
11675;SDS011;5894;42.768;23.404;2024-03-23T03:32:03;15.40;;;9.97;;
11675;SDS011;5894;42.768;23.404;2024-03-23T03:34:29;25.40;;;13.07;;
11675;SDS011;5894;42.768;23.404;2024-03-23T03:36:56;36.47;;;15.50;;
11675;SDS011;5894;42.768;23.404;2024-03-23T03:39:22;39.03;;;15.93;;
11675;SDS011;5894;42.768;23.404;2024-03-23T03:41:49;48.30;;;19.57;;
11675;SDS011;5894;42.768;23.404;2024-03-23T03:44:15;44.67;;;18.77;;
11675;SDS011;5894;42.768;23.404;2024-03-23T03:46:42;34.03;;;14.13;;
11675;SDS011;5894;42.768;23.404;2024-03-23T03:49:10;21.13;;;10.90;;
11675;SDS011;5894;42.768;23.404;2024-03-23T03:51:37;17.93;;;9.40;;
11675;SDS011;5894;42.768;23.404;2024-03-23T03:54:03;17.97;;;9.23;;
11675;SDS011;5894;42.768;23.404;2024-03-23T03:56:30;15.20;;;8.67;;
11675;SDS011;5894;42.768;23.404;2024-03-23T03:58:55;14.80;;;9.10;;
11675;SDS011;5894;42.768;23.404;2024-03-23T04:01:22;12.20;;;8.57;;
11675;SDS011;5894;42.768;23.404;2024-03-23T04:03:49;12.90;;;7.80;;
11675;SDS011;5894;42.768;23.404;2024-03-23T04:06:19;12.27;;;7.77;;
11675;SDS011;5894;42.768;23.404;2024-03-23T04:08:46;10.10;;;6.40;;
11675;SDS011;5894;42.768;23.404;2024-03-23T04:11:12;13.50;;;7.00;;
11675;SDS011;5894;42.768;23.404;2024-03-23T04:13:39;15.13;;;7.67;;
11675;SDS011;5894;42.768;23.404;2024-03-23T04:16:07;41.50;;;17.30;;
11675;SDS011;5894;42.768;23.404;2024-03-23T04:18:34;61.37;;;22.60;;
11675;SDS011;5894;42.768;23.404;2024-03-23T04:21:00;47.93;;;19.40;;
11675;SDS011;5894;42.768;23.404;2024-03-23T04:23:28;38.77;;;17.10;;
11675;SDS011;5894;42.768;23.404;2024-03-23T04:25:54;30.47;;;13.70;;
11675;SDS011;5894;42.768;23.404;2024-03-23T04:28:21;23.17;;;11.40;;
11675;SDS011;5894;42.768;23.404;2024-03-23T04:30:47;21.63;;;11.97;;
11675;SDS011;5894;42.768;23.404;2024-03-23T04:33:14;26.47;;;13.63;;
11675;SDS011;5894;42.768;23.404;2024-03-23T04:35:40;27.90;;;12.83;;
11675;SDS011;5894;42.768;23.404;2024-03-23T04:38:07;19.23;;;9.57;;
11675;SDS011;5894;42.768;23.404;2024-03-23T04:40:35;14.20;;;9.10;;
11675;SDS011;5894;42.768;23.404;2024-03-23T04:43:02;14.43;;;9.13;;
11675;SDS011;5894;42.768;23.404;2024-03-23T04:45:30;14.87;;;8.03;;
11675;SDS011;5894;42.768;23.404;2024-03-23T04:47:57;13.83;;;7.77;;
11675;SDS011;5894;42.768;23.404;2024-03-23T04:50:24;12.63;;;7.60;;
11675;SDS011;5894;42.768;23.404;2024-03-23T04:52:51;10.87;;;7.67;;
11675;SDS011;5894;42.768;23.404;2024-03-23T04:55:18;12.67;;;8.20;;
11675;SDS011;5894;42.768;23.404;2024-03-23T04:57:46;17.07;;;9.60;;
11675;SDS011;5894;42.768;23.404;2024-03-23T05:00:12;16.43;;;9.27;;
11675;SDS011;5894;42.768;23.404;2024-03-23T05:02:43;17.43;;;9.40;;
11675;SDS011;5894;42.768;23.404;2024-03-23T05:05:10;20.50;;;10.00;;
11675;SDS011;5894;42.768;23.404;2024-03-23T05:07:37;16.47;;;11.00;;
11675;SDS011;5894;42.768;23.404;2024-03-23T05:10:04;19.60;;;11.77;;
11675;SDS011;5894;42.768;23.404;2024-03-23T05:12:35;32.37;;;23.23;;
11675;SDS011;5894;42.768;23.404;2024-03-23T05:15:02;38.03;;;26.07;;
11675;SDS011;5894;42.768;23.404;2024-03-23T05:17:30;35.87;;;25.50;;
11675;SDS011;5894;42.768;23.404;2024-03-23T05:19:56;27.27;;;17.40;;
11675;SDS011;5894;42.768;23.404;2024-03-23T05:22:23;23.83;;;14.67;;
11675;SDS011;5894;42.768;23.404;2024-03-23T05:24:49;20.93;;;14.60;;
11675;SDS011;5894;42.768;23.404;2024-03-23T05:27:16;32.30;;;18.80;;
11675;SDS011;5894;42.768;23.404;2024-03-23T05:29:42;49.93;;;32.60;;
11675;SDS011;5894;42.768;23.404;2024-03-23T05:32:10;47.77;;;30.47;;
11675;SDS011;5894;42.768;23.404;2024-03-23T05:34:36;45.17;;;28.60;;
11675;SDS011;5894;42.768;23.404;2024-03-23T05:37:03;29.17;;;17.90;;
11675;SDS011;5894;42.768;23.404;2024-03-23T05:39:29;26.30;;;15.47;;
11675;SDS011;5894;42.768;23.404;2024-03-23T05:41:56;26.50;;;15.63;;
11675;SDS011;5894;42.768;23.404;2024-03-23T05:44:22;22.20;;;14.03;;
11675;SDS011;5894;42.768;23.404;2024-03-23T05:46:49;17.80;;;11.30;;
11675;SDS011;5894;42.768;23.404;2024-03-23T05:49:16;18.20;;;11.33;;
11675;SDS011;5894;42.768;23.404;2024-03-23T05:51:43;13.10;;;9.40;;
11675;SDS011;5894;42.768;23.404;2024-03-23T05:54:09;17.20;;;9.67;;
11675;SDS011;5894;42.768;23.404;2024-03-23T05:56:36;13.87;;;9.60;;
11675;SDS011;5894;42.768;23.404;2024-03-23T05:59:02;14.43;;;9.57;;
11675;SDS011;5894;42.768;23.404;2024-03-23T06:01:29;13.23;;;8.97;;
11675;SDS011;5894;42.768;23.404;2024-03-23T06:03:58;14.93;;;9.23;;
11675;SDS011;5894;42.768;23.404;2024-03-23T06:06:27;13.80;;;9.17;;
11675;SDS011;5894;42.768;23.404;2024-03-23T06:08:55;17.30;;;10.07;;
11675;SDS011;5894;42.768;23.404;2024-03-23T06:11:22;15.43;;;9.87;;
11675;SDS011;5894;42.768;23.404;2024-03-23T06:13:48;16.27;;;10.43;;
11675;SDS011;5894;42.768;23.404;2024-03-23T06:16:15;15.90;;;10.67;;
11675;SDS011;5894;42.768;23.404;2024-03-23T06:18:41;14.03;;;10.57;;
11675;SDS011;5894;42.768;23.404;2024-03-23T06:21:12;15.87;;;10.07;;
11675;SDS011;5894;42.768;23.404;2024-03-23T06:23:40;17.07;;;10.13;;
11675;SDS011;5894;42.768;23.404;2024-03-23T06:26:07;14.83;;;9.90;;
11675;SDS011;5894;42.768;23.404;2024-03-23T06:28:33;17.57;;;9.73;;
11675;SDS011;5894;42.768;23.404;2024-03-23T06:31:01;15.07;;;9.93;;
11675;SDS011;5894;42.768;23.404;2024-03-23T06:33:27;14.10;;;8.80;;
11675;SDS011;5894;42.768;23.404;2024-03-23T06:35:54;15.27;;;9.17;;
11675;SDS011;5894;42.768;23.404;2024-03-23T06:38:20;14.87;;;10.17;;
11675;SDS011;5894;42.768;23.404;2024-03-23T06:40:49;19.07;;;10.47;;
11675;SDS011;5894;42.768;23.404;2024-03-23T06:43:16;18.90;;;9.23;;
11675;SDS011;5894;42.768;23.404;2024-03-23T06:45:43;13.07;;;9.00;;
11675;SDS011;5894;42.768;23.404;2024-03-23T06:48:08;13.53;;;8.33;;
11675;SDS011;5894;42.768;23.404;2024-03-23T06:50:35;12.97;;;8.53;;
11675;SDS011;5894;42.768;23.404;2024-03-23T06:53:01;10.70;;;8.03;;
11675;SDS011;5894;42.768;23.404;2024-03-23T06:55:30;14.67;;;8.13;;
11675;SDS011;5894;42.768;23.404;2024-03-23T06:57:58;12.03;;;8.40;;
11675;SDS011;5894;42.768;23.404;2024-03-23T07:00:25;11.60;;;8.47;;
11675;SDS011;5894;42.768;23.404;2024-03-23T07:02:51;12.60;;;8.67;;
11675;SDS011;5894;42.768;23.404;2024-03-23T07:05:18;13.03;;;8.03;;
11675;SDS011;5894;42.768;23.404;2024-03-23T07:07:44;10.70;;;7.60;;
11675;SDS011;5894;42.768;23.404;2024-03-23T07:10:10;11.60;;;8.50;;
11675;SDS011;5894;42.768;23.404;2024-03-23T07:12:37;13.47;;;9.37;;
11675;SDS011;5894;42.768;23.404;2024-03-23T07:15:06;13.87;;;9.03;;
11675;SDS011;5894;42.768;23.404;2024-03-23T07:17:33;14.57;;;8.60;;
11675;SDS011;5894;42.768;23.404;2024-03-23T07:20:00;14.63;;;9.40;;
11675;SDS011;5894;42.768;23.404;2024-03-23T07:22:29;15.83;;;9.40;;
11675;SDS011;5894;42.768;23.404;2024-03-23T07:24:57;13.57;;;9.27;;
11675;SDS011;5894;42.768;23.404;2024-03-23T07:27:25;17.60;;;9.17;;
11675;SDS011;5894;42.768;23.404;2024-03-23T07:29:52;14.20;;;9.03;;
11675;SDS011;5894;42.768;23.404;2024-03-23T07:32:19;15.73;;;8.70;;
11675;SDS011;5894;42.768;23.404;2024-03-23T07:34:46;17.23;;;8.83;;
11675;SDS011;5894;42.768;23.404;2024-03-23T07:37:12;12.80;;;8.60;;
11675;SDS011;5894;42.768;23.404;2024-03-23T07:39:39;13.20;;;8.53;;
11675;SDS011;5894;42.768;23.404;2024-03-23T07:42:05;15.47;;;8.47;;
11675;SDS011;5894;42.768;23.404;2024-03-23T07:44:33;12.67;;;8.73;;
11675;SDS011;5894;42.768;23.404;2024-03-23T07:46:59;13.47;;;7.93;;
11675;SDS011;5894;42.768;23.404;2024-03-23T07:49:28;207.23;;;18.87;;
11675;SDS011;5894;42.768;23.404;2024-03-23T07:51:54;28.13;;;8.37;;
11675;SDS011;5894;42.768;23.404;2024-03-23T07:54:21;12.47;;;8.03;;
11675;SDS011;5894;42.768;23.404;2024-03-23T07:56:47;11.33;;;8.33;;
11675;SDS011;5894;42.768;23.404;2024-03-23T07:59:14;10.37;;;7.90;;
11675;SDS011;5894;42.768;23.404;2024-03-23T08:01:40;11.67;;;7.47;;
11675;SDS011;5894;42.768;23.404;2024-03-23T08:04:06;12.57;;;7.60;;
11675;SDS011;5894;42.768;23.404;2024-03-23T08:06:34;17.70;;;8.00;;
11675;SDS011;5894;42.768;23.404;2024-03-23T08:09:01;14.87;;;8.40;;
11675;SDS011;5894;42.768;23.404;2024-03-23T08:11:27;16.17;;;8.70;;
11675;SDS011;5894;42.768;23.404;2024-03-23T08:13:55;19.83;;;8.67;;
11675;SDS011;5894;42.768;23.404;2024-03-23T08:16:22;18.30;;;8.93;;
11675;SDS011;5894;42.768;23.404;2024-03-23T08:18:50;12.60;;;8.43;;
11675;SDS011;5894;42.768;23.404;2024-03-23T08:21:17;20.50;;;8.50;;
11675;SDS011;5894;42.768;23.404;2024-03-23T08:23:46;21.40;;;8.80;;
11675;SDS011;5894;42.768;23.404;2024-03-23T08:26:14;25.03;;;9.30;;
11675;SDS011;5894;42.768;23.404;2024-03-23T08:28:41;15.80;;;8.03;;
11675;SDS011;5894;42.768;23.404;2024-03-23T08:31:09;17.67;;;8.40;;
11675;SDS011;5894;42.768;23.404;2024-03-23T08:33:35;13.38;;;8.50;;
11675;SDS011;5894;42.768;23.404;2024-03-23T08:36:04;15.82;;;7.90;;
11675;SDS011;5894;42.768;23.404;2024-03-23T08:38:31;10.38;;;6.97;;
11675;SDS011;5894;42.768;23.404;2024-03-23T08:41:00;10.30;;;7.38;;
11675;SDS011;5894;42.768;23.404;2024-03-23T08:43:28;11.50;;;7.47;;
11675;SDS011;5894;42.768;23.404;2024-03-23T08:46:03;13.73;;;7.43;;
11675;SDS011;5894;42.768;23.404;2024-03-23T08:48:30;13.95;;;7.65;;
11675;SDS011;5894;42.768;23.404;2024-03-23T08:51:00;10.65;;;7.20;;
11675;SDS011;5894;42.768;23.404;2024-03-23T08:53:28;17.65;;;7.80;;
11675;SDS011;5894;42.768;23.404;2024-03-23T08:55:56;9.07;;;6.60;;
11675;SDS011;5894;42.768;23.404;2024-03-23T08:58:25;8.80;;;6.15;;
11675;SDS011;5894;42.768;23.404;2024-03-23T09:00:52;9.77;;;6.53;;
11675;SDS011;5894;42.768;23.404;2024-03-23T09:03:21;11.95;;;6.85;;
11675;SDS011;5894;42.768;23.404;2024-03-23T09:05:49;9.73;;;6.10;;
11675;SDS011;5894;42.768;23.404;2024-03-23T09:08:15;10.45;;;6.28;;
11675;SDS011;5894;42.768;23.404;2024-03-23T09:10:42;9.77;;;6.30;;
11675;SDS011;5894;42.768;23.404;2024-03-23T09:13:08;9.07;;;6.38;;
11675;SDS011;5894;42.768;23.404;2024-03-23T09:15:37;8.90;;;6.40;;
11675;SDS011;5894;42.768;23.404;2024-03-23T09:18:11;9.98;;;6.25;;
11675;SDS011;5894;42.768;23.404;2024-03-23T09:20:37;10.10;;;6.40;;
11675;SDS011;5894;42.768;23.404;2024-03-23T09:23:03;9.40;;;6.70;;
11675;SDS011;5894;42.768;23.404;2024-03-23T09:25:30;8.35;;;6.30;;
11675;SDS011;5894;42.768;23.404;2024-03-23T09:27:57;12.00;;;7.18;;
11675;SDS011;5894;42.768;23.404;2024-03-23T09:30:24;9.48;;;7.20;;
11675;SDS011;5894;42.768;23.404;2024-03-23T09:32:51;8.98;;;6.63;;
11675;SDS011;5894;42.768;23.404;2024-03-23T09:35:18;11.13;;;6.70;;
11675;SDS011;5894;42.768;23.404;2024-03-23T09:37:44;10.90;;;6.80;;
11675;SDS011;5894;42.768;23.404;2024-03-23T09:40:11;9.98;;;6.28;;
11675;SDS011;5894;42.768;23.404;2024-03-23T09:42:37;8.10;;;6.05;;
11675;SDS011;5894;42.768;23.404;2024-03-23T09:45:05;8.32;;;5.75;;
11675;SDS011;5894;42.768;23.404;2024-03-23T09:47:36;8.45;;;5.88;;
11675;SDS011;5894;42.768;23.404;2024-03-23T09:50:05;8.77;;;5.95;;
11675;SDS011;5894;42.768;23.404;2024-03-23T09:52:33;17.05;;;6.60;;
11675;SDS011;5894;42.768;23.404;2024-03-23T09:54:59;10.50;;;5.97;;
11675;SDS011;5894;42.768;23.404;2024-03-23T09:57:26;12.05;;;6.07;;
11675;SDS011;5894;42.768;23.404;2024-03-23T09:59:53;9.18;;;5.88;;
11675;SDS011;5894;42.768;23.404;2024-03-23T10:02:20;7.82;;;6.00;;
11675;SDS011;5894;42.768;23.404;2024-03-23T10:04:47;8.90;;;5.50;;
11675;SDS011;5894;42.768;23.404;2024-03-23T10:07:15;8.23;;;5.95;;
11675;SDS011;5894;42.768;23.404;2024-03-23T10:09:46;9.82;;;6.03;;
11675;SDS011;5894;42.768;23.404;2024-03-23T10:12:12;11.68;;;6.22;;
11675;SDS011;5894;42.768;23.404;2024-03-23T10:14:41;19.85;;;12.15;;
11675;SDS011;5894;42.768;23.404;2024-03-23T10:17:11;11.73;;;7.32;;
11675;SDS011;5894;42.768;23.404;2024-03-23T10:19:40;6.57;;;5.18;;
11675;SDS011;5894;42.768;23.404;2024-03-23T10:22:08;8.25;;;5.90;;
11675;SDS011;5894;42.768;23.404;2024-03-23T10:24:37;11.13;;;5.88;;
11675;SDS011;5894;42.768;23.404;2024-03-23T10:27:03;9.13;;;5.72;;
11675;SDS011;5894;42.768;23.404;2024-03-23T10:29:30;7.45;;;5.70;;
11675;SDS011;5894;42.768;23.404;2024-03-23T10:32:07;9.63;;;5.30;;
11675;SDS011;5894;42.768;23.404;2024-03-23T10:34:35;7.57;;;5.15;;
11675;SDS011;5894;42.768;23.404;2024-03-23T10:37:01;12.18;;;6.35;;
11675;SDS011;5894;42.768;23.404;2024-03-23T10:39:33;10.13;;;6.05;;
11675;SDS011;5894;42.768;23.404;2024-03-23T10:42:02;9.50;;;5.57;;
11675;SDS011;5894;42.768;23.404;2024-03-23T10:44:30;6.30;;;3.90;;
11675;SDS011;5894;42.768;23.404;2024-03-23T10:46:58;7.43;;;3.92;;
11675;SDS011;5894;42.768;23.404;2024-03-23T10:49:28;7.88;;;3.80;;
11675;SDS011;5894;42.768;23.404;2024-03-23T10:51:55;10.45;;;6.20;;
11675;SDS011;5894;42.768;23.404;2024-03-23T10:54:25;9.30;;;5.45;;
11675;SDS011;5894;42.768;23.404;2024-03-23T10:56:53;9.70;;;4.55;;
11675;SDS011;5894;42.768;23.404;2024-03-23T10:59:25;7.47;;;3.75;;
11675;SDS011;5894;42.768;23.404;2024-03-23T11:01:55;13.65;;;9.88;;
11675;SDS011;5894;42.768;23.404;2024-03-23T11:04:32;6.20;;;4.32;;
11675;SDS011;5894;42.768;23.404;2024-03-23T11:06:58;6.82;;;3.90;;
11675;SDS011;5894;42.768;23.404;2024-03-23T11:09:38;10.75;;;5.53;;
11675;SDS011;5894;42.768;23.404;2024-03-23T11:12:10;6.85;;;3.70;;
11675;SDS011;5894;42.768;23.404;2024-03-23T11:14:52;5.55;;;3.25;;
11675;SDS011;5894;42.768;23.404;2024-03-23T11:17:20;12.77;;;4.78;;
11675;SDS011;5894;42.768;23.404;2024-03-23T11:19:52;9.32;;;4.45;;
11675;SDS011;5894;42.768;23.404;2024-03-23T11:25:12;7.70;;;3.70;;
11675;SDS011;5894;42.768;23.404;2024-03-23T11:27:38;10.93;;;5.18;;
11675;SDS011;5894;42.768;23.404;2024-03-23T11:30:14;7.57;;;3.80;;
11675;SDS011;5894;42.768;23.404;2024-03-23T11:32:43;16.65;;;7.32;;
11675;SDS011;5894;42.768;23.404;2024-03-23T11:35:10;108.28;;;33.50;;
11675;SDS011;5894;42.768;23.404;2024-03-23T11:37:37;93.03;;;33.88;;
11675;SDS011;5894;42.768;23.404;2024-03-23T11:40:18;17.58;;;7.70;;
11675;SDS011;5894;42.768;23.404;2024-03-23T11:42:46;10.02;;;4.47;;
11675;SDS011;5894;42.768;23.404;2024-03-23T11:45:14;8.35;;;4.05;;
11675;SDS011;5894;42.768;23.404;2024-03-23T11:47:41;9.73;;;3.97;;
11675;SDS011;5894;42.768;23.404;2024-03-23T11:50:07;8.65;;;3.58;;
11675;SDS011;5894;42.768;23.404;2024-03-23T11:52:35;6.68;;;3.42;;
11675;SDS011;5894;42.768;23.404;2024-03-23T11:55:05;8.18;;;3.80;;
11675;SDS011;5894;42.768;23.404;2024-03-23T11:57:33;6.55;;;3.75;;
11675;SDS011;5894;42.768;23.404;2024-03-23T11:59:59;10.55;;;3.95;;
11675;SDS011;5894;42.768;23.404;2024-03-23T12:02:28;5.57;;;3.35;;
11675;SDS011;5894;42.768;23.404;2024-03-23T12:04:54;15.95;;;7.80;;
11675;SDS011;5894;42.768;23.404;2024-03-23T12:07:21;8.35;;;3.88;;
11675;SDS011;5894;42.768;23.404;2024-03-23T12:09:47;7.68;;;3.58;;
11675;SDS011;5894;42.768;23.404;2024-03-23T12:12:29;8.00;;;3.90;;
11675;SDS011;5894;42.768;23.404;2024-03-23T12:15:00;8.32;;;3.88;;
11675;SDS011;5894;42.768;23.404;2024-03-23T12:17:30;22.70;;;16.90;;
11675;SDS011;5894;42.768;23.404;2024-03-23T12:19:56;8.60;;;5.70;;
11675;SDS011;5894;42.768;23.404;2024-03-23T12:22:23;8.45;;;4.10;;
11675;SDS011;5894;42.768;23.404;2024-03-23T12:24:49;9.55;;;5.20;;
11675;SDS011;5894;42.768;23.404;2024-03-23T12:27:17;33.15;;;16.95;;
11675;SDS011;5894;42.768;23.404;2024-03-23T12:29:42;28.27;;;15.68;;
11675;SDS011;5894;42.768;23.404;2024-03-23T12:32:11;13.88;;;6.57;;
11675;SDS011;5894;42.768;23.404;2024-03-23T12:34:39;50.08;;;32.03;;
11675;SDS011;5894;42.768;23.404;2024-03-23T12:37:07;14.00;;;6.47;;
11675;SDS011;5894;42.768;23.404;2024-03-23T12:39:34;8.40;;;4.97;;
11675;SDS011;5894;42.768;23.404;2024-03-23T12:42:02;18.63;;;9.23;;
11675;SDS011;5894;42.768;23.404;2024-03-23T12:44:28;6.20;;;3.53;;
11675;SDS011;5894;42.768;23.404;2024-03-23T12:46:55;8.15;;;3.92;;
11675;SDS011;5894;42.768;23.404;2024-03-23T12:49:21;6.10;;;3.78;;
11675;SDS011;5894;42.768;23.404;2024-03-23T12:51:53;11.02;;;6.10;;
11675;SDS011;5894;42.768;23.404;2024-03-23T12:54:19;10.43;;;5.20;;
11675;SDS011;5894;42.768;23.404;2024-03-23T12:56:46;11.80;;;5.15;;
11675;SDS011;5894;42.768;23.404;2024-03-23T12:59:12;9.05;;;4.45;;
11675;SDS011;5894;42.768;23.404;2024-03-23T13:01:40;6.43;;;3.40;;
11675;SDS011;5894;42.768;23.404;2024-03-23T13:04:06;3.85;;;3.05;;
11675;SDS011;5894;42.768;23.404;2024-03-23T13:06:33;4.88;;;3.22;;
11675;SDS011;5894;42.768;23.404;2024-03-23T13:09:01;7.60;;;3.97;;
11675;SDS011;5894;42.768;23.404;2024-03-23T13:11:28;7.00;;;3.35;;
11675;SDS011;5894;42.768;23.404;2024-03-23T13:13:54;4.30;;;3.20;;
11675;SDS011;5894;42.768;23.404;2024-03-23T13:16:22;5.95;;;2.97;;
11675;SDS011;5894;42.768;23.404;2024-03-23T13:18:48;6.47;;;3.33;;
11675;SDS011;5894;42.768;23.404;2024-03-23T13:21:15;6.13;;;3.53;;
11675;SDS011;5894;42.768;23.404;2024-03-23T13:23:42;5.22;;;3.17;;
11675;SDS011;5894;42.768;23.404;2024-03-23T13:26:15;6.05;;;3.50;;
11675;SDS011;5894;42.768;23.404;2024-03-23T13:28:41;5.78;;;3.55;;
11675;SDS011;5894;42.768;23.404;2024-03-23T13:31:08;9.82;;;6.07;;
11675;SDS011;5894;42.768;23.404;2024-03-23T13:33:34;6.90;;;4.28;;
11675;SDS011;5894;42.768;23.404;2024-03-23T13:36:00;3.60;;;2.42;;
11675;SDS011;5894;42.768;23.404;2024-03-23T13:38:27;10.77;;;7.00;;
11675;SDS011;5894;42.768;23.404;2024-03-23T13:40:53;8.98;;;6.40;;
11675;SDS011;5894;42.768;23.404;2024-03-23T13:43:23;3.75;;;2.33;;
11675;SDS011;5894;42.768;23.404;2024-03-23T13:45:50;4.05;;;2.55;;
11675;SDS011;5894;42.768;23.404;2024-03-23T13:48:19;2.55;;;2.20;;
11675;SDS011;5894;42.768;23.404;2024-03-23T13:50:45;4.25;;;2.50;;
11675;SDS011;5894;42.768;23.404;2024-03-23T13:53:14;4.25;;;2.50;;
11675;SDS011;5894;42.768;23.404;2024-03-23T13:55:45;4.70;;;3.55;;
11675;SDS011;5894;42.768;23.404;2024-03-23T13:58:15;4.13;;;2.80;;
11675;SDS011;5894;42.768;23.404;2024-03-23T14:00:43;3.22;;;2.70;;
11675;SDS011;5894;42.768;23.404;2024-03-23T14:03:10;4.53;;;2.47;;
11675;SDS011;5894;42.768;23.404;2024-03-23T14:05:37;8.18;;;3.47;;
11675;SDS011;5894;42.768;23.404;2024-03-23T14:08:04;28.67;;;17.15;;
11675;SDS011;5894;42.768;23.404;2024-03-23T14:10:31;18.33;;;10.32;;
11675;SDS011;5894;42.768;23.404;2024-03-23T14:12:58;71.20;;;36.17;;
11675;SDS011;5894;42.768;23.404;2024-03-23T14:15:25;36.45;;;20.80;;
11675;SDS011;5894;42.768;23.404;2024-03-23T14:17:53;44.05;;;25.23;;
11675;SDS011;5894;42.768;23.404;2024-03-23T14:20:20;108.13;;;53.88;;
11675;SDS011;5894;42.768;23.404;2024-03-23T14:22:46;46.60;;;24.27;;
11675;SDS011;5894;42.768;23.404;2024-03-23T14:25:12;12.45;;;7.13;;
11675;SDS011;5894;42.768;23.404;2024-03-23T14:27:39;32.90;;;18.40;;
11675;SDS011;5894;42.768;23.404;2024-03-23T14:30:06;14.27;;;6.90;;
11675;SDS011;5894;42.768;23.404;2024-03-23T14:32:33;5.35;;;3.15;;
11675;SDS011;5894;42.768;23.404;2024-03-23T14:35:01;2.53;;;2.05;;
11675;SDS011;5894;42.768;23.404;2024-03-23T14:37:28;2.83;;;2.03;;
11675;SDS011;5894;42.768;23.404;2024-03-23T14:39:55;21.02;;;11.20;;
11675;SDS011;5894;42.768;23.404;2024-03-23T14:42:22;15.32;;;8.45;;
11675;SDS011;5894;42.768;23.404;2024-03-23T14:44:49;8.52;;;4.65;;
11675;SDS011;5894;42.768;23.404;2024-03-23T14:47:16;5.20;;;3.22;;
11675;SDS011;5894;42.768;23.404;2024-03-23T14:49:43;8.30;;;4.03;;
11675;SDS011;5894;42.768;23.404;2024-03-23T14:52:13;6.45;;;2.65;;
11675;SDS011;5894;42.768;23.404;2024-03-23T14:54:39;3.13;;;2.13;;
11675;SDS011;5894;42.768;23.404;2024-03-23T14:57:06;5.05;;;2.80;;
11675;SDS011;5894;42.768;23.404;2024-03-23T14:59:34;3.53;;;2.40;;
11675;SDS011;5894;42.768;23.404;2024-03-23T15:02:00;5.40;;;2.45;;
11675;SDS011;5894;42.768;23.404;2024-03-23T15:04:27;8.73;;;2.17;;
11675;SDS011;5894;42.768;23.404;2024-03-23T15:06:53;3.13;;;1.92;;
11675;SDS011;5894;42.768;23.404;2024-03-23T15:09:22;5.13;;;3.38;;
11675;SDS011;5894;42.768;23.404;2024-03-23T15:11:49;4.15;;;2.03;;
11675;SDS011;5894;42.768;23.404;2024-03-23T15:14:15;2.20;;;1.98;;
11675;SDS011;5894;42.768;23.404;2024-03-23T15:16:41;2.47;;;2.03;;
11675;SDS011;5894;42.768;23.404;2024-03-23T15:19:08;2.92;;;2.30;;
11675;SDS011;5894;42.768;23.404;2024-03-23T15:21:34;4.78;;;2.00;;
11675;SDS011;5894;42.768;23.404;2024-03-23T15:24:01;3.28;;;2.40;;
11675;SDS011;5894;42.768;23.404;2024-03-23T15:26:29;6.75;;;2.50;;
11675;SDS011;5894;42.768;23.404;2024-03-23T15:28:56;9.45;;;4.80;;
11675;SDS011;5894;42.768;23.404;2024-03-23T15:31:41;5.97;;;2.65;;
11675;SDS011;5894;42.768;23.404;2024-03-23T15:34:09;3.17;;;2.53;;